sensor_id;sensor_type;location;lat;lon;timestamp;P1;durP1;ratioP1;P2;durP2;ratioP2
73909;SDS011;62245;48.070;7.874;2023-05-07T12:07:24;7.32;;;3.35;;
73909;SDS011;62245;48.070;7.874;2023-05-07T12:09:50;7.95;;;3.85;;
73909;SDS011;62245;48.070;7.874;2023-05-07T12:12:19;6.97;;;3.25;;
73909;SDS011;62245;48.070;7.874;2023-05-07T12:14:44;6.37;;;3.17;;
73909;SDS011;62245;48.070;7.874;2023-05-07T12:17:11;6.57;;;3.08;;
73909;SDS011;62245;48.070;7.874;2023-05-07T12:19:38;5.05;;;2.63;;
73909;SDS011;62245;48.070;7.874;2023-05-07T12:22:05;10.80;;;4.88;;
73909;SDS011;62245;48.070;7.874;2023-05-07T12:24:45;12.45;;;6.47;;
73909;SDS011;62245;48.070;7.874;2023-05-07T12:27:21;8.98;;;5.00;;
73909;SDS011;62245;48.070;7.874;2023-05-07T12:29:46;5.28;;;3.20;;
73909;SDS011;62245;48.070;7.874;2023-05-07T12:32:15;6.45;;;2.95;;
73909;SDS011;62245;48.070;7.874;2023-05-07T12:34:42;6.35;;;3.28;;
73909;SDS011;62245;48.070;7.874;2023-05-07T12:37:07;6.80;;;3.22;;
73909;SDS011;62245;48.070;7.874;2023-05-07T12:39:33;7.72;;;3.20;;
73909;SDS011;62245;48.070;7.874;2023-05-07T12:41:58;5.87;;;3.20;;
73909;SDS011;62245;48.070;7.874;2023-05-07T12:44:25;10.05;;;3.92;;
73909;SDS011;62245;48.070;7.874;2023-05-07T12:46:54;6.18;;;3.00;;
73909;SDS011;62245;48.070;7.874;2023-05-07T12:49:19;6.13;;;3.38;;
73909;SDS011;62245;48.070;7.874;2023-05-07T12:51:46;5.20;;;2.70;;
73909;SDS011;62245;48.070;7.874;2023-05-07T12:54:13;5.35;;;2.95;;
73909;SDS011;62245;48.070;7.874;2023-05-07T12:56:39;5.72;;;2.78;;
73909;SDS011;62245;48.070;7.874;2023-05-07T12:59:05;6.68;;;3.30;;
73909;SDS011;62245;48.070;7.874;2023-05-07T13:01:30;6.90;;;3.65;;
73909;SDS011;62245;48.070;7.874;2023-05-07T13:03:58;6.80;;;3.50;;
73909;SDS011;62245;48.070;7.874;2023-05-07T13:06:25;5.70;;;3.00;;
73909;SDS011;62245;48.070;7.874;2023-05-07T13:08:51;7.28;;;2.72;;
73909;SDS011;62245;48.070;7.874;2023-05-07T13:11:16;6.53;;;3.20;;
73909;SDS011;62245;48.070;7.874;2023-05-07T13:13:41;5.33;;;2.53;;
73909;SDS011;62245;48.070;7.874;2023-05-07T13:16:08;5.27;;;2.67;;
73909;SDS011;62245;48.070;7.874;2023-05-07T13:18:35;5.90;;;2.90;;
73909;SDS011;62245;48.070;7.874;2023-05-07T13:21:02;5.05;;;2.78;;
73909;SDS011;62245;48.070;7.874;2023-05-07T13:23:27;5.15;;;2.80;;
73909;SDS011;62245;48.070;7.874;2023-05-07T13:25:53;5.72;;;3.05;;
73909;SDS011;62245;48.070;7.874;2023-05-07T13:28:19;5.90;;;3.00;;
73909;SDS011;62245;48.070;7.874;2023-05-07T13:30:45;6.90;;;2.88;;
73909;SDS011;62245;48.070;7.874;2023-05-07T13:33:11;8.60;;;2.70;;
73909;SDS011;62245;48.070;7.874;2023-05-07T13:35:37;6.43;;;2.90;;
73909;SDS011;62245;48.070;7.874;2023-05-07T13:38:02;7.03;;;3.10;;
73909;SDS011;62245;48.070;7.874;2023-05-07T13:40:28;4.72;;;2.63;;
73909;SDS011;62245;48.070;7.874;2023-05-07T13:42:53;5.57;;;2.80;;
73909;SDS011;62245;48.070;7.874;2023-05-07T13:45:19;6.97;;;3.92;;
73909;SDS011;62245;48.070;7.874;2023-05-07T13:47:45;7.93;;;3.20;;
73909;SDS011;62245;48.070;7.874;2023-05-07T13:50:11;6.50;;;3.20;;
73909;SDS011;62245;48.070;7.874;2023-05-07T13:52:40;6.90;;;3.40;;
73909;SDS011;62245;48.070;7.874;2023-05-07T13:55:08;6.55;;;2.90;;
73909;SDS011;62245;48.070;7.874;2023-05-07T13:57:33;5.28;;;2.88;;
73909;SDS011;62245;48.070;7.874;2023-05-07T13:59:59;5.37;;;2.90;;
73909;SDS011;62245;48.070;7.874;2023-05-07T14:02:24;4.93;;;2.27;;
73909;SDS011;62245;48.070;7.874;2023-05-07T14:04:49;10.35;;;2.88;;
73909;SDS011;62245;48.070;7.874;2023-05-07T14:07:14;4.53;;;2.20;;
73909;SDS011;62245;48.070;7.874;2023-05-07T14:09:40;4.07;;;2.38;;
73909;SDS011;62245;48.070;7.874;2023-05-07T14:12:05;4.97;;;2.43;;
73909;SDS011;62245;48.070;7.874;2023-05-07T14:14:31;5.50;;;2.42;;
73909;SDS011;62245;48.070;7.874;2023-05-07T14:16:56;4.68;;;2.70;;
73909;SDS011;62245;48.070;7.874;2023-05-07T14:19:22;6.40;;;2.55;;
73909;SDS011;62245;48.070;7.874;2023-05-07T14:21:47;6.80;;;2.60;;
73909;SDS011;62245;48.070;7.874;2023-05-07T14:24:13;4.97;;;2.50;;
73909;SDS011;62245;48.070;7.874;2023-05-07T14:26:38;5.32;;;2.58;;
73909;SDS011;62245;48.070;7.874;2023-05-07T14:29:04;5.00;;;2.87;;
73909;SDS011;62245;48.070;7.874;2023-05-07T14:31:29;5.97;;;2.80;;
73909;SDS011;62245;48.070;7.874;2023-05-07T14:33:54;6.18;;;2.35;;
73909;SDS011;62245;48.070;7.874;2023-05-07T14:36:20;4.32;;;2.63;;
73909;SDS011;62245;48.070;7.874;2023-05-07T14:38:46;4.78;;;2.40;;
73909;SDS011;62245;48.070;7.874;2023-05-07T14:41:12;4.25;;;2.30;;
73909;SDS011;62245;48.070;7.874;2023-05-07T14:43:37;4.18;;;2.40;;
73909;SDS011;62245;48.070;7.874;2023-05-07T14:46:03;7.43;;;2.33;;
73909;SDS011;62245;48.070;7.874;2023-05-07T14:48:28;4.75;;;2.53;;
73909;SDS011;62245;48.070;7.874;2023-05-07T14:50:53;4.73;;;2.20;;
73909;SDS011;62245;48.070;7.874;2023-05-07T14:53:19;4.20;;;2.20;;
73909;SDS011;62245;48.070;7.874;2023-05-07T14:55:44;4.53;;;2.42;;
73909;SDS011;62245;48.070;7.874;2023-05-07T14:58:10;4.28;;;2.35;;
73909;SDS011;62245;48.070;7.874;2023-05-07T15:00:36;4.57;;;2.10;;
73909;SDS011;62245;48.070;7.874;2023-05-07T15:03:05;6.15;;;2.65;;
73909;SDS011;62245;48.070;7.874;2023-05-07T15:05:33;4.57;;;2.22;;
73909;SDS011;62245;48.070;7.874;2023-05-07T15:07:59;6.90;;;2.38;;
73909;SDS011;62245;48.070;7.874;2023-05-07T15:10:25;6.22;;;2.65;;
73909;SDS011;62245;48.070;7.874;2023-05-07T15:12:50;5.68;;;2.42;;
73909;SDS011;62245;48.070;7.874;2023-05-07T15:15:16;5.97;;;2.83;;
73909;SDS011;62245;48.070;7.874;2023-05-07T15:17:44;6.22;;;2.90;;
73909;SDS011;62245;48.070;7.874;2023-05-07T15:20:10;5.15;;;2.75;;
73909;SDS011;62245;48.070;7.874;2023-05-07T15:22:35;6.13;;;3.47;;
73909;SDS011;62245;48.070;7.874;2023-05-07T15:25:02;4.85;;;2.40;;
73909;SDS011;62245;48.070;7.874;2023-05-07T15:27:32;5.88;;;2.33;;
73909;SDS011;62245;48.070;7.874;2023-05-07T15:29:57;4.40;;;2.22;;
73909;SDS011;62245;48.070;7.874;2023-05-07T15:32:22;5.27;;;2.50;;
73909;SDS011;62245;48.070;7.874;2023-05-07T15:34:48;5.35;;;2.30;;
73909;SDS011;62245;48.070;7.874;2023-05-07T15:37:13;5.25;;;2.42;;
73909;SDS011;62245;48.070;7.874;2023-05-07T15:39:38;5.80;;;2.90;;
73909;SDS011;62245;48.070;7.874;2023-05-07T15:42:04;4.85;;;2.35;;
73909;SDS011;62245;48.070;7.874;2023-05-07T15:44:30;6.90;;;2.65;;
73909;SDS011;62245;48.070;7.874;2023-05-07T15:46:57;6.28;;;2.33;;
73909;SDS011;62245;48.070;7.874;2023-05-07T15:49:23;11.52;;;6.45;;
73909;SDS011;62245;48.070;7.874;2023-05-07T15:51:49;14.77;;;8.97;;
73909;SDS011;62245;48.070;7.874;2023-05-07T15:54:15;7.60;;;3.92;;
73909;SDS011;62245;48.070;7.874;2023-05-07T15:56:41;6.65;;;2.70;;
73909;SDS011;62245;48.070;7.874;2023-05-07T15:59:07;5.15;;;2.75;;
73909;SDS011;62245;48.070;7.874;2023-05-07T16:01:34;7.63;;;2.65;;
73909;SDS011;62245;48.070;7.874;2023-05-07T16:04:00;5.10;;;2.50;;
73909;SDS011;62245;48.070;7.874;2023-05-07T16:06:26;4.43;;;2.77;;
73909;SDS011;62245;48.070;7.874;2023-05-07T16:08:52;4.72;;;1.92;;
73909;SDS011;62245;48.070;7.874;2023-05-07T16:11:17;5.15;;;2.58;;
73909;SDS011;62245;48.070;7.874;2023-05-07T16:13:43;4.97;;;2.40;;
73909;SDS011;62245;48.070;7.874;2023-05-07T16:16:08;3.73;;;2.13;;
73909;SDS011;62245;48.070;7.874;2023-05-07T16:18:34;5.13;;;2.38;;
73909;SDS011;62245;48.070;7.874;2023-05-07T16:21:01;4.93;;;2.63;;
73909;SDS011;62245;48.070;7.874;2023-05-07T16:23:26;4.53;;;2.53;;
73909;SDS011;62245;48.070;7.874;2023-05-07T16:25:51;4.80;;;2.50;;
73909;SDS011;62245;48.070;7.874;2023-05-07T16:28:17;5.00;;;2.30;;
73909;SDS011;62245;48.070;7.874;2023-05-07T16:30:42;3.93;;;2.17;;
73909;SDS011;62245;48.070;7.874;2023-05-07T16:33:07;5.30;;;2.22;;
73909;SDS011;62245;48.070;7.874;2023-05-07T16:35:33;5.95;;;2.20;;
73909;SDS011;62245;48.070;7.874;2023-05-07T16:37:58;5.25;;;1.75;;
73909;SDS011;62245;48.070;7.874;2023-05-07T16:40:24;4.70;;;1.83;;
73909;SDS011;62245;48.070;7.874;2023-05-07T16:42:49;3.90;;;1.60;;
73909;SDS011;62245;48.070;7.874;2023-05-07T16:45:15;3.35;;;1.70;;
73909;SDS011;62245;48.070;7.874;2023-05-07T16:47:40;4.30;;;1.37;;
73909;SDS011;62245;48.070;7.874;2023-05-07T16:50:08;4.32;;;2.53;;
73909;SDS011;62245;48.070;7.874;2023-05-07T16:52:33;3.47;;;1.67;;
73909;SDS011;62245;48.070;7.874;2023-05-07T16:54:59;3.63;;;1.67;;
73909;SDS011;62245;48.070;7.874;2023-05-07T16:57:28;5.80;;;1.33;;
73909;SDS011;62245;48.070;7.874;2023-05-07T17:02:20;2.78;;;1.30;;
73909;SDS011;62245;48.070;7.874;2023-05-07T17:04:45;3.83;;;1.33;;
73909;SDS011;62245;48.070;7.874;2023-05-07T17:07:10;3.72;;;1.73;;
73909;SDS011;62245;48.070;7.874;2023-05-07T17:09:36;2.95;;;1.42;;
73909;SDS011;62245;48.070;7.874;2023-05-07T17:12:01;2.77;;;1.50;;
73909;SDS011;62245;48.070;7.874;2023-05-07T17:14:27;4.22;;;1.50;;
73909;SDS011;62245;48.070;7.874;2023-05-07T17:16:52;2.57;;;1.20;;
73909;SDS011;62245;48.070;7.874;2023-05-07T17:19:17;4.83;;;1.67;;
73909;SDS011;62245;48.070;7.874;2023-05-07T17:21:43;3.03;;;1.63;;
73909;SDS011;62245;48.070;7.874;2023-05-07T17:24:08;2.87;;;1.40;;
73909;SDS011;62245;48.070;7.874;2023-05-07T17:26:34;2.67;;;1.33;;
73909;SDS011;62245;48.070;7.874;2023-05-07T17:29:00;3.65;;;1.85;;
73909;SDS011;62245;48.070;7.874;2023-05-07T17:31:26;3.78;;;1.75;;
73909;SDS011;62245;48.070;7.874;2023-05-07T17:33:52;3.47;;;1.83;;
73909;SDS011;62245;48.070;7.874;2023-05-07T17:36:17;4.10;;;1.93;;
73909;SDS011;62245;48.070;7.874;2023-05-07T17:38:43;3.00;;;1.63;;
73909;SDS011;62245;48.070;7.874;2023-05-07T17:41:08;3.30;;;1.37;;
73909;SDS011;62245;48.070;7.874;2023-05-07T17:43:33;3.97;;;1.70;;
73909;SDS011;62245;48.070;7.874;2023-05-07T17:45:58;3.87;;;1.80;;
73909;SDS011;62245;48.070;7.874;2023-05-07T17:48:24;3.13;;;1.70;;
73909;SDS011;62245;48.070;7.874;2023-05-07T17:50:49;3.83;;;1.80;;
73909;SDS011;62245;48.070;7.874;2023-05-07T17:53:14;5.53;;;1.83;;
73909;SDS011;62245;48.070;7.874;2023-05-07T17:55:40;5.57;;;1.93;;
73909;SDS011;62245;48.070;7.874;2023-05-07T17:58:07;3.97;;;1.40;;
73909;SDS011;62245;48.070;7.874;2023-05-07T18:00:33;4.30;;;1.77;;
73909;SDS011;62245;48.070;7.874;2023-05-07T18:02:59;6.82;;;3.60;;
73909;SDS011;62245;48.070;7.874;2023-05-07T18:05:25;13.40;;;7.97;;
73909;SDS011;62245;48.070;7.874;2023-05-07T18:07:51;11.50;;;7.43;;
73909;SDS011;62245;48.070;7.874;2023-05-07T18:10:20;9.68;;;5.90;;
73909;SDS011;62245;48.070;7.874;2023-05-07T18:12:46;6.35;;;2.90;;
73909;SDS011;62245;48.070;7.874;2023-05-07T18:15:12;4.90;;;1.98;;
73909;SDS011;62245;48.070;7.874;2023-05-07T18:17:37;4.70;;;1.97;;
73909;SDS011;62245;48.070;7.874;2023-05-07T18:20:05;3.53;;;1.83;;
73909;SDS011;62245;48.070;7.874;2023-05-07T18:22:33;4.07;;;1.70;;
73909;SDS011;62245;48.070;7.874;2023-05-07T18:24:58;3.15;;;1.70;;
73909;SDS011;62245;48.070;7.874;2023-05-07T18:27:23;4.20;;;1.80;;
73909;SDS011;62245;48.070;7.874;2023-05-07T18:29:49;4.00;;;1.30;;
73909;SDS011;62245;48.070;7.874;2023-05-07T18:32:14;3.13;;;1.50;;
73909;SDS011;62245;48.070;7.874;2023-05-07T18:34:39;3.33;;;1.50;;
73909;SDS011;62245;48.070;7.874;2023-05-07T18:37:05;3.30;;;1.30;;
73909;SDS011;62245;48.070;7.874;2023-05-07T18:39:30;3.42;;;1.52;;
73909;SDS011;62245;48.070;7.874;2023-05-07T18:41:56;3.17;;;1.67;;
73909;SDS011;62245;48.070;7.874;2023-05-07T18:44:22;3.97;;;1.58;;
73909;SDS011;62245;48.070;7.874;2023-05-07T18:46:48;3.55;;;1.60;;
73909;SDS011;62245;48.070;7.874;2023-05-07T18:49:14;3.13;;;1.50;;
73909;SDS011;62245;48.070;7.874;2023-05-07T18:51:39;3.57;;;1.90;;
73909;SDS011;62245;48.070;7.874;2023-05-07T18:54:05;3.67;;;1.67;;
73909;SDS011;62245;48.070;7.874;2023-05-07T18:56:30;3.93;;;1.63;;
73909;SDS011;62245;48.070;7.874;2023-05-07T18:58:55;6.27;;;2.17;;
73909;SDS011;62245;48.070;7.874;2023-05-07T19:01:21;4.38;;;2.03;;
73909;SDS011;62245;48.070;7.874;2023-05-07T19:03:46;5.10;;;2.38;;
73909;SDS011;62245;48.070;7.874;2023-05-07T19:06:12;3.97;;;1.70;;
73909;SDS011;62245;48.070;7.874;2023-05-07T19:08:38;3.13;;;1.55;;
73909;SDS011;62245;48.070;7.874;2023-05-07T19:11:03;3.22;;;1.45;;
73909;SDS011;62245;48.070;7.874;2023-05-07T19:13:28;3.85;;;1.63;;
73909;SDS011;62245;48.070;7.874;2023-05-07T19:15:54;3.73;;;1.87;;
73909;SDS011;62245;48.070;7.874;2023-05-07T19:18:19;2.83;;;1.40;;
73909;SDS011;62245;48.070;7.874;2023-05-07T19:20:45;4.10;;;1.58;;
73909;SDS011;62245;48.070;7.874;2023-05-07T19:23:12;16.70;;;7.82;;
73909;SDS011;62245;48.070;7.874;2023-05-07T19:25:37;3.03;;;1.30;;
73909;SDS011;62245;48.070;7.874;2023-05-07T19:28:02;2.33;;;1.70;;
73909;SDS011;62245;48.070;7.874;2023-05-07T19:30:28;3.07;;;1.47;;
73909;SDS011;62245;48.070;7.874;2023-05-07T19:32:53;3.13;;;1.55;;
73909;SDS011;62245;48.070;7.874;2023-05-07T19:35:18;4.53;;;1.67;;
73909;SDS011;62245;48.070;7.874;2023-05-07T19:37:44;2.38;;;1.33;;
73909;SDS011;62245;48.070;7.874;2023-05-07T19:40:09;3.95;;;1.83;;
73909;SDS011;62245;48.070;7.874;2023-05-07T19:42:35;3.38;;;1.77;;
73909;SDS011;62245;48.070;7.874;2023-05-07T19:45:01;2.80;;;1.30;;
73909;SDS011;62245;48.070;7.874;2023-05-07T19:47:28;3.05;;;1.60;;
73909;SDS011;62245;48.070;7.874;2023-05-07T19:49:54;2.22;;;1.20;;
73909;SDS011;62245;48.070;7.874;2023-05-07T19:52:20;2.75;;;1.38;;
73909;SDS011;62245;48.070;7.874;2023-05-07T19:54:46;4.63;;;1.40;;
73909;SDS011;62245;48.070;7.874;2023-05-07T19:57:11;2.33;;;1.15;;
73909;SDS011;62245;48.070;7.874;2023-05-07T19:59:38;5.90;;;2.15;;
73909;SDS011;62245;48.070;7.874;2023-05-07T20:02:04;4.05;;;1.75;;
73909;SDS011;62245;48.070;7.874;2023-05-07T20:04:29;3.03;;;1.10;;
73909;SDS011;62245;48.070;7.874;2023-05-07T20:06:57;2.45;;;1.10;;
73909;SDS011;62245;48.070;7.874;2023-05-07T20:09:22;2.03;;;1.05;;
73909;SDS011;62245;48.070;7.874;2023-05-07T20:11:48;2.35;;;1.05;;
73909;SDS011;62245;48.070;7.874;2023-05-07T20:14:13;3.90;;;1.30;;
73909;SDS011;62245;48.070;7.874;2023-05-07T20:16:38;2.30;;;1.13;;
73909;SDS011;62245;48.070;7.874;2023-05-07T20:19:04;4.47;;;1.83;;
73909;SDS011;62245;48.070;7.874;2023-05-07T20:21:29;4.83;;;1.90;;
73909;SDS011;62245;48.070;7.874;2023-05-07T20:23:55;2.63;;;1.13;;
73909;SDS011;62245;48.070;7.874;2023-05-07T20:26:20;2.45;;;1.15;;
73909;SDS011;62245;48.070;7.874;2023-05-07T20:28:47;2.22;;;0.95;;
73909;SDS011;62245;48.070;7.874;2023-05-07T20:31:12;2.22;;;1.10;;
73909;SDS011;62245;48.070;7.874;2023-05-07T20:33:37;2.23;;;1.10;;
73909;SDS011;62245;48.070;7.874;2023-05-07T20:36:05;3.25;;;1.30;;
73909;SDS011;62245;48.070;7.874;2023-05-07T20:38:31;2.70;;;1.10;;
73909;SDS011;62245;48.070;7.874;2023-05-07T20:40:57;2.58;;;1.10;;
73909;SDS011;62245;48.070;7.874;2023-05-07T20:43:23;2.80;;;1.38;;
73909;SDS011;62245;48.070;7.874;2023-05-07T20:45:57;2.45;;;1.33;;
73909;SDS011;62245;48.070;7.874;2023-05-07T20:48:23;4.95;;;1.50;;
73909;SDS011;62245;48.070;7.874;2023-05-07T20:50:49;2.95;;;1.10;;
73909;SDS011;62245;48.070;7.874;2023-05-07T20:53:14;2.00;;;1.10;;
73909;SDS011;62245;48.070;7.874;2023-05-07T20:55:39;4.90;;;1.27;;
73909;SDS011;62245;48.070;7.874;2023-05-07T20:58:04;2.87;;;1.10;;
73909;SDS011;62245;48.070;7.874;2023-05-07T21:00:30;4.67;;;1.90;;
73909;SDS011;62245;48.070;7.874;2023-05-07T21:02:55;5.87;;;3.17;;
73909;SDS011;62245;48.070;7.874;2023-05-07T21:05:20;5.53;;;2.17;;
73909;SDS011;62245;48.070;7.874;2023-05-07T21:07:46;3.72;;;1.30;;
73909;SDS011;62245;48.070;7.874;2023-05-07T21:10:11;3.47;;;1.20;;
73909;SDS011;62245;48.070;7.874;2023-05-07T21:12:36;4.03;;;1.43;;
73909;SDS011;62245;48.070;7.874;2023-05-07T21:15:03;3.42;;;1.40;;
73909;SDS011;62245;48.070;7.874;2023-05-07T21:17:29;2.58;;;1.30;;
73909;SDS011;62245;48.070;7.874;2023-05-07T21:19:56;3.47;;;1.40;;
73909;SDS011;62245;48.070;7.874;2023-05-07T21:22:22;2.33;;;1.27;;
73909;SDS011;62245;48.070;7.874;2023-05-07T21:24:47;3.47;;;1.57;;
73909;SDS011;62245;48.070;7.874;2023-05-07T21:27:12;2.93;;;1.40;;
73909;SDS011;62245;48.070;7.874;2023-05-07T21:29:38;2.23;;;1.37;;
73909;SDS011;62245;48.070;7.874;2023-05-07T21:32:03;3.50;;;1.50;;
73909;SDS011;62245;48.070;7.874;2023-05-07T21:34:29;3.22;;;1.40;;
73909;SDS011;62245;48.070;7.874;2023-05-07T21:36:54;2.90;;;1.40;;
73909;SDS011;62245;48.070;7.874;2023-05-07T21:39:20;5.70;;;1.73;;
73909;SDS011;62245;48.070;7.874;2023-05-07T21:41:46;3.53;;;1.58;;
73909;SDS011;62245;48.070;7.874;2023-05-07T21:44:11;4.35;;;1.63;;
73909;SDS011;62245;48.070;7.874;2023-05-07T21:46:37;2.03;;;1.00;;
73909;SDS011;62245;48.070;7.874;2023-05-07T21:49:02;3.63;;;1.63;;
73909;SDS011;62245;48.070;7.874;2023-05-07T21:51:27;4.18;;;1.40;;
73909;SDS011;62245;48.070;7.874;2023-05-07T21:53:53;2.95;;;1.27;;
73909;SDS011;62245;48.070;7.874;2023-05-07T21:56:19;3.90;;;1.42;;
73909;SDS011;62245;48.070;7.874;2023-05-07T21:58:46;5.28;;;1.63;;
73909;SDS011;62245;48.070;7.874;2023-05-07T22:01:12;4.38;;;1.55;;
73909;SDS011;62245;48.070;7.874;2023-05-07T22:03:38;2.88;;;1.20;;
73909;SDS011;62245;48.070;7.874;2023-05-07T22:06:04;3.75;;;1.40;;
73909;SDS011;62245;48.070;7.874;2023-05-07T22:08:29;3.08;;;1.30;;
73909;SDS011;62245;48.070;7.874;2023-05-07T22:10:55;4.73;;;1.20;;
73909;SDS011;62245;48.070;7.874;2023-05-07T22:13:20;3.63;;;1.17;;
73909;SDS011;62245;48.070;7.874;2023-05-07T22:15:45;3.70;;;1.40;;
73909;SDS011;62245;48.070;7.874;2023-05-07T22:18:11;2.77;;;1.23;;
73909;SDS011;62245;48.070;7.874;2023-05-07T22:20:36;5.73;;;1.27;;
73909;SDS011;62245;48.070;7.874;2023-05-07T22:23:01;4.07;;;1.30;;
73909;SDS011;62245;48.070;7.874;2023-05-07T22:25:30;4.50;;;1.53;;
73909;SDS011;62245;48.070;7.874;2023-05-07T22:27:57;3.70;;;1.80;;
73909;SDS011;62245;48.070;7.874;2023-05-07T22:30:22;4.10;;;1.20;;
73909;SDS011;62245;48.070;7.874;2023-05-07T22:32:47;3.50;;;1.33;;
73909;SDS011;62245;48.070;7.874;2023-05-07T22:35:13;2.77;;;1.30;;
73909;SDS011;62245;48.070;7.874;2023-05-07T22:37:39;2.75;;;1.27;;
73909;SDS011;62245;48.070;7.874;2023-05-07T22:40:04;3.40;;;1.30;;
73909;SDS011;62245;48.070;7.874;2023-05-07T22:42:30;4.47;;;1.38;;
73909;SDS011;62245;48.070;7.874;2023-05-07T22:44:55;3.43;;;1.20;;
73909;SDS011;62245;48.070;7.874;2023-05-07T22:47:21;2.27;;;1.23;;
73909;SDS011;62245;48.070;7.874;2023-05-07T22:49:47;2.47;;;1.00;;
73909;SDS011;62245;48.070;7.874;2023-05-07T22:52:12;2.90;;;1.20;;
73909;SDS011;62245;48.070;7.874;2023-05-07T22:54:37;3.25;;;1.40;;
73909;SDS011;62245;48.070;7.874;2023-05-07T22:57:02;3.80;;;1.50;;
73909;SDS011;62245;48.070;7.874;2023-05-07T22:59:28;3.40;;;1.40;;
73909;SDS011;62245;48.070;7.874;2023-05-07T23:01:54;3.97;;;1.40;;
73909;SDS011;62245;48.070;7.874;2023-05-07T23:04:19;2.90;;;1.43;;
73909;SDS011;62245;48.070;7.874;2023-05-07T23:06:44;2.90;;;1.58;;
73909;SDS011;62245;48.070;7.874;2023-05-07T23:09:10;2.72;;;1.52;;
73909;SDS011;62245;48.070;7.874;2023-05-07T23:11:36;3.80;;;1.40;;
73909;SDS011;62245;48.070;7.874;2023-05-07T23:14:02;7.05;;;1.70;;
73909;SDS011;62245;48.070;7.874;2023-05-07T23:16:27;2.97;;;1.13;;
73909;SDS011;62245;48.070;7.874;2023-05-07T23:18:53;3.67;;;1.38;;
73909;SDS011;62245;48.070;7.874;2023-05-07T23:21:18;3.05;;;1.30;;
73909;SDS011;62245;48.070;7.874;2023-05-07T23:23:44;3.47;;;1.35;;
73909;SDS011;62245;48.070;7.874;2023-05-07T23:26:09;4.27;;;1.10;;
73909;SDS011;62245;48.070;7.874;2023-05-07T23:28:34;2.00;;;1.20;;
73909;SDS011;62245;48.070;7.874;2023-05-07T23:31:00;5.70;;;1.70;;
73909;SDS011;62245;48.070;7.874;2023-05-07T23:33:25;3.80;;;1.23;;
73909;SDS011;62245;48.070;7.874;2023-05-07T23:35:59;2.00;;;1.10;;
73909;SDS011;62245;48.070;7.874;2023-05-07T23:38:25;3.40;;;1.30;;
73909;SDS011;62245;48.070;7.874;2023-05-07T23:40:54;2.72;;;1.10;;
73909;SDS011;62245;48.070;7.874;2023-05-07T23:43:19;5.47;;;1.27;;
73909;SDS011;62245;48.070;7.874;2023-05-07T23:45:45;2.80;;;1.40;;
73909;SDS011;62245;48.070;7.874;2023-05-07T23:48:11;2.63;;;1.15;;
73909;SDS011;62245;48.070;7.874;2023-05-07T23:50:36;3.07;;;1.30;;
73909;SDS011;62245;48.070;7.874;2023-05-07T23:53:01;3.30;;;1.00;;
73909;SDS011;62245;48.070;7.874;2023-05-07T23:55:27;3.03;;;1.27;;
73909;SDS011;62245;48.070;7.874;2023-05-07T23:57:52;3.67;;;1.50;;
